Time;durP1;ratioP1;P1;durP2;ratioP2;P2;SDS_P1;SDS_P2;PMS_P1;PMS_P2;Temp;Humidity;BMP_temperature;BMP_pressure;BME280_temperature;BME280_humidity;BME280_pressure;Samples;Min_cycle;Max_cycle;Signal;HPM_P1;HPM_P2
2022/07/21 00:01:07;;;;;;;7.27;6.47;;;21.30;1.00;;;;;;5054866;28;20192;-87
2022/07/21 00:03:33;;;;;;;5.87;5.03;;;21.30;1.00;;;;;;5054661;28;20852;-85
2022/07/21 00:05:59;;;;;;;7.00;6.30;;;21.30;99.90;;;;;;5053228;28;20213;-85
2022/07/21 00:08:25;;;;;;;6.07;5.37;;;21.30;99.90;;;;;;5056346;28;20714;-85
2022/07/21 00:10:52;;;;;;;8.10;5.63;;;21.30;1.00;;;;;;5055243;28;20439;-85
2022/07/21 00:13:18;;;;;;;6.40;5.77;;;21.20;1.00;;;;;;5057667;28;20181;-86
2022/07/21 00:15:43;;;;;;;6.23;5.63;;;21.20;1.00;;;;;;5056102;28;20466;-86
2022/07/21 00:18:09;;;;;;;6.20;5.50;;;21.20;1.00;;;;;;5053519;28;20424;-85
2022/07/21 00:20:34;;;;;;;6.67;5.97;;;21.30;1.00;;;;;;5055581;28;20189;-85
2022/07/21 00:23:00;;;;;;;6.77;6.17;;;21.30;1.00;;;;;;5051866;28;20208;-85
2022/07/21 00:25:26;;;;;;;7.00;5.90;;;21.30;1.00;;;;;;5055324;28;20212;-85
2022/07/21 00:27:51;;;;;;;6.27;5.67;;;21.30;1.00;;;;;;5053552;28;20236;-85
2022/07/21 00:30:17;;;;;;;7.93;5.90;;;21.30;1.00;;;;;;5054333;28;20620;-86
2022/07/21 00:32:44;;;;;;;6.63;6.03;;;21.40;1.00;;;;;;5056650;28;20186;-86
2022/07/21 00:35:11;;;;;;;6.13;5.30;;;21.40;1.00;;;;;;5053000;28;20527;-85
2022/07/21 00:37:37;;;;;;;8.40;5.93;;;21.40;1.00;;;;;;5055661;28;20443;-86
2022/07/21 00:40:05;;;;;;;5.60;5.03;;;21.40;1.00;;;;;;5053859;28;20468;-85
2022/07/21 00:42:31;;;;;;;8.37;5.50;;;21.40;99.90;;;;;;5054186;28;20472;-86
2022/07/21 00:44:58;;;;;;;6.37;5.77;;;21.40;99.90;;;;;;5053320;28;20537;-87
2022/07/21 00:47:29;;;;;;;6.43;5.83;;;21.40;99.90;;;;;;5055707;28;20475;-85
2022/07/21 00:49:56;;;;;;;6.67;6.07;;;21.40;99.90;;;;;;5053109;28;20464;-88
2022/07/21 00:52:21;;;;;;;8.40;5.90;;;21.30;63.40;;;;;;5055526;28;20444;-85
2022/07/21 00:54:47;;;;;;;7.20;5.53;;;21.30;1.00;;;;;;5056853;28;20965;-87
2022/07/21 00:57:13;;;;;;;8.50;5.97;;;21.20;80.80;;;;;;5057268;28;20185;-85
2022/07/21 00:59:41;;;;;;;6.80;6.10;;;21.20;99.90;;;;;;5054218;28;20614;-85
2022/07/21 01:02:06;;;;;;;6.57;5.87;;;21.20;99.90;;;;;;5051127;28;20436;-86
2022/07/21 01:04:32;;;;;;;10.33;7.20;;;21.10;1.00;;;;;;5065661;28;20814;-86
2022/07/21 01:07:01;;;;;;;8.73;7.83;;;21.10;1.00;;;;;;5054422;28;20279;-84
2022/07/21 01:09:27;;;;;;;7.27;6.63;;;21.10;99.90;;;;;;5055270;28;20689;-84
2022/07/21 01:11:53;;;;;;;8.40;7.17;;;21.00;1.00;;;;;;5052237;28;20464;-86
2022/07/21 01:14:18;;;;;;;8.07;7.27;;;21.00;1.00;;;;;;5055870;28;20193;-86
2022/07/21 01:16:44;;;;;;;7.60;6.90;;;21.00;99.90;;;;;;5055017;28;20246;-85
2022/07/21 01:19:10;;;;;;;8.67;7.70;;;21.00;99.90;;;;;;5053666;28;20212;-85
2022/07/21 01:21:41;;;;;;;11.17;7.93;;;20.90;99.90;;;;;;5052325;28;20221;-86
2022/07/21 01:24:07;;;;;;;9.13;8.20;;;20.90;99.90;;;;;;5052392;28;20507;-84
2022/07/21 01:26:48;;;;;;;9.27;7.47;;;20.90;99.90;;;;;;5054644;28;20482;-84
2022/07/21 01:29:14;;;;;;;9.83;8.80;;;20.90;99.90;;;;;;5046423;28;20439;-87
2022/07/21 01:31:41;;;;;;;9.43;7.90;;;20.90;99.90;;;;;;5053225;28;20445;-86
2022/07/21 01:34:08;;;;;;;11.53;8.33;;;20.90;99.90;;;;;;5051427;28;20467;-85
2022/07/21 01:36:34;;;;;;;9.10;7.87;;;20.90;99.90;;;;;;5048986;28;20823;-85
2022/07/21 01:41:44;;;;;;;9.67;8.00;;;20.90;99.90;;;;;;5053863;28;20486;-85
2022/07/21 01:44:12;;;;;;;9.87;8.87;;;20.90;99.90;;;;;;5052206;28;20753;-85
2022/07/21 01:46:46;;;;;;;11.93;9.60;;;20.90;99.90;;;;;;5051193;28;20243;-84
2022/07/21 01:49:13;;;;;;;13.20;8.47;;;20.80;99.90;;;;;;5057374;28;20463;-85
2022/07/21 01:51:40;;;;;;;10.40;9.40;;;20.80;99.90;;;;;;5051269;28;20808;-85
2022/07/21 01:54:07;;;;;;;10.83;9.77;;;20.80;1.00;;;;;;5052904;28;20435;-86
2022/07/21 01:56:33;;;;;;;10.37;8.83;;;20.80;1.00;;;;;;5050298;28;20474;-85
2022/07/21 01:58:58;;;;;;;9.83;8.30;;;20.80;1.00;;;;;;5052620;28;20526;-84
2022/07/21 02:01:26;;;;;;;12.20;8.93;;;20.80;1.00;;;;;;5050578;28;20461;-85
2022/07/21 02:03:53;;;;;;;12.00;10.30;;;20.80;1.00;;;;;;5051374;28;20199;-86
2022/07/21 02:06:18;;;;;;;13.10;9.60;;;20.80;1.00;;;;;;5049955;28;20489;-86
2022/07/21 02:08:44;;;;;;;12.93;9.10;;;20.80;99.90;;;;;;5053020;28;20811;-85
2022/07/21 02:11:12;;;;;;;10.90;9.90;;;20.90;99.90;;;;;;5054311;28;20766;-85
2022/07/21 02:13:38;;;;;;;11.50;10.40;;;20.90;99.90;;;;;;5051395;28;20189;-85
2022/07/21 02:16:04;;;;;;;9.77;8.77;;;20.90;99.90;;;;;;5052026;28;20488;-86
2022/07/21 02:18:30;;;;;;;14.87;9.30;;;20.80;1.00;;;;;;5054279;28;20206;-85
2022/07/21 02:20:56;;;;;;;12.20;10.57;;;20.80;1.00;;;;;;5052374;28;20918;-85
2022/07/21 02:23:23;;;;;;;12.40;10.77;;;20.80;1.00;;;;;;5044595;28;20474;-86
2022/07/21 02:25:49;;;;;;;13.27;10.27;;;20.80;1.00;;;;;;5049566;28;20226;-85
2022/07/21 02:28:15;;;;;;;12.43;11.23;;;20.80;1.00;;;;;;5050360;28;20444;-84
2022/07/21 02:30:40;;;;;;;14.23;11.17;;;20.80;24.80;;;;;;5050510;28;20999;-85
2022/07/21 02:33:06;;;;;;;12.53;10.40;;;20.70;99.90;;;;;;5055747;28;20260;-85
2022/07/21 02:35:32;;;;;;;12.40;11.13;;;20.70;99.90;;;;;;5054330;28;20208;-85
2022/07/21 02:37:58;;;;;;;13.17;11.87;;;20.70;99.90;;;;;;5051450;28;20196;-85
2022/07/21 02:40:23;;;;;;;12.67;11.47;;;20.70;99.90;;;;;;5054087;28;20450;-87
2022/07/21 02:42:49;;;;;;;13.33;11.77;;;20.70;1.00;;;;;;5052555;28;20280;-86
2022/07/21 02:45:15;;;;;;;14.67;12.60;;;20.70;1.00;;;;;;5049396;28;20214;-86
2022/07/21 02:47:50;;;;;;;16.40;11.60;;;20.70;1.00;;;;;;5054009;28;20269;-85
2022/07/21 02:50:16;;;;;;;12.73;11.43;;;20.70;1.00;;;;;;5050802;28;20188;-86
2022/07/21 02:52:42;;;;;;;13.17;11.77;;;20.70;1.00;;;;;;5052697;28;20498;-89
2022/07/21 02:55:08;;;;;;;15.43;12.57;;;20.70;1.00;;;;;;5053699;28;20457;-85
2022/07/21 02:57:34;;;;;;;12.57;11.40;;;20.70;1.00;;;;;;5051315;28;20197;-86
2022/07/21 02:59:59;;;;;;;12.67;11.47;;;20.60;1.00;;;;;;5055291;28;20434;-87
2022/07/21 03:02:25;;;;;;;13.27;11.93;;;20.60;1.00;;;;;;5051053;28;20188;-85
2022/07/21 03:04:50;;;;;;;13.37;12.03;;;20.60;1.00;;;;;;5050488;28;20205;-85
2022/07/21 03:07:16;;;;;;;17.13;11.90;;;20.60;1.00;;;;;;5050816;28;20360;-88
2022/07/21 03:09:42;;;;;;;14.53;11.70;;;20.60;1.00;;;;;;5051980;28;20194;-85
2022/07/21 03:12:07;;;;;;;12.63;11.40;;;20.60;1.00;;;;;;5050601;28;20188;-89
2022/07/21 03:14:33;;;;;;;14.03;12.20;;;20.70;1.00;;;;;;5050843;28;20204;-85
2022/07/21 03:17:02;;;;;;;15.03;12.23;;;20.70;1.00;;;;;;5049044;28;20180;-88
2022/07/21 03:19:28;;;;;;;13.57;10.73;;;20.70;1.00;;;;;;5051107;28;20214;-85
2022/07/21 03:21:53;;;;;;;13.17;11.43;;;20.70;1.00;;;;;;5053271;28;20958;-86
2022/07/21 03:24:19;;;;;;;16.83;11.50;;;20.60;1.00;;;;;;5049726;28;20446;-85
2022/07/21 03:26:44;;;;;;;13.33;11.70;;;20.60;1.00;;;;;;5050944;28;20575;-86
2022/07/21 03:29:10;;;;;;;13.23;11.80;;;20.60;1.00;;;;;;5051346;28;20183;-86
2022/07/21 03:31:35;;;;;;;15.50;11.07;;;20.60;1.00;;;;;;5049023;28;20184;-85
2022/07/21 03:34:01;;;;;;;12.57;11.33;;;20.60;30.90;;;;;;5052364;28;20295;-86
2022/07/21 03:36:26;;;;;;;16.67;12.63;;;20.50;99.90;;;;;;5056400;28;20236;-85
2022/07/21 03:38:52;;;;;;;15.00;13.27;;;20.50;99.90;;;;;;5052391;28;20192;-88
2022/07/21 03:41:17;;;;;;;14.17;12.73;;;20.50;99.90;;;;;;5055757;28;20184;-83
2022/07/21 03:43:43;;;;;;;15.33;13.63;;;20.40;99.90;;;;;;5056191;28;20687;-86
2022/07/21 03:46:09;;;;;;;16.13;14.17;;;20.40;99.90;;;;;;5053859;28;20227;-84
2022/07/21 03:48:34;;;;;;;16.53;14.70;;;20.30;99.90;;;;;;5056848;28;20274;-85
2022/07/21 03:51:00;;;;;;;15.93;14.23;;;20.30;99.90;;;;;;5057062;28;20264;-85
2022/07/21 03:53:25;;;;;;;16.30;14.57;;;20.20;99.90;;;;;;5055681;28;20173;-85
2022/07/21 03:55:51;;;;;;;15.53;13.87;;;20.20;1.00;;;;;;5055592;28;20208;-86
2022/07/21 03:58:17;;;;;;;14.83;13.30;;;20.20;1.00;;;;;;5054852;28;20189;-86
2022/07/21 04:00:44;;;;;;;14.97;13.40;;;20.20;1.00;;;;;;5057588;28;20659;-86
2022/07/21 04:03:10;;;;;;;16.77;12.47;;;20.30;1.00;;;;;;5053056;28;20580;-85
2022/07/21 04:05:37;;;;;;;14.07;11.77;;;20.30;1.00;;;;;;5065003;28;20537;-86
2022/07/21 04:08:03;;;;;;;13.77;11.53;;;20.30;1.00;;;;;;5056380;28;20437;-86
2022/07/21 04:10:33;;;;;;;15.47;13.97;;;20.30;1.00;;;;;;5059251;28;20441;-86
2022/07/21 04:13:01;;;;;;;14.53;12.80;;;20.30;1.00;;;;;;5057691;28;20537;-87
2022/07/21 04:15:26;;;;;;;13.80;11.70;;;20.30;1.00;;;;;;5064301;28;20453;-87
2022/07/21 04:17:52;;;;;;;13.80;12.40;;;20.30;1.00;;;;;;5064717;28;20482;-85
2022/07/21 04:20:19;;;;;;;16.93;12.33;;;20.30;1.00;;;;;;5056915;28;20192;-86
2022/07/21 04:22:46;;;;;;;13.17;11.77;;;20.40;1.00;;;;;;5054238;28;20450;-85
2022/07/21 04:25:12;;;;;;;15.50;13.07;;;20.40;1.00;;;;;;5052610;28;20549;-87
2022/07/21 04:27:38;;;;;;;14.80;13.40;;;20.40;1.00;;;;;;5050416;28;20525;-85
2022/07/21 04:30:06;;;;;;;14.67;13.17;;;20.50;99.90;;;;;;5058401;28;20433;-87
2022/07/21 04:32:45;;;;;;;15.03;13.43;;;20.50;99.90;;;;;;5056902;28;20412;-86
2022/07/21 04:35:12;;;;;;;18.20;14.60;;;20.50;99.90;;;;;;5049954;28;20440;-85
2022/07/21 04:37:38;;;;;;;14.00;12.60;;;20.60;99.90;;;;;;5057502;28;20548;-85
2022/07/21 04:40:05;;;;;;;20.87;15.40;;;20.60;99.90;;;;;;5058501;28;20543;-84
2022/07/21 04:42:34;;;;;;;14.87;13.37;;;20.70;99.90;;;;;;5054072;28;20231;-85
2022/07/21 04:45:00;;;;;;;15.23;13.60;;;20.80;99.90;;;;;;5057774;28;20445;-85
2022/07/21 04:47:25;;;;;;;14.83;13.33;;;20.80;99.90;;;;;;5055130;28;20470;-88
2022/07/21 04:49:51;;;;;;;14.90;13.37;;;20.90;99.90;;;;;;5059243;28;20210;-87
2022/07/21 04:52:16;;;;;;;15.70;14.17;;;20.90;99.90;;;;;;5058383;28;20222;-88
2022/07/21 04:54:42;;;;;;;17.30;13.90;;;21.00;99.90;;;;;;5059119;28;20201;-86
2022/07/21 04:57:07;;;;;;;14.40;12.90;;;21.10;99.90;;;;;;5056889;28;20189;-89
2022/07/21 04:59:35;;;;;;;14.67;13.17;;;21.10;99.60;;;;;;5057240;28;20195;-85
2022/07/21 05:02:01;;;;;;;15.80;14.20;;;21.10;43.10;;;;;;5059060;28;20239;-85
2022/07/21 05:04:26;;;;;;;15.00;12.77;;;21.10;24.70;;;;;;5058320;28;20475;-84
2022/07/21 05:06:52;;;;;;;15.23;13.60;;;21.10;23.80;;;;;;5055254;28;20506;-88
2022/07/21 05:09:18;;;;;;;15.30;13.77;;;21.20;6.70;;;;;;5053229;28;20249;-85
2022/07/21 05:11:43;;;;;;;14.30;13.00;;;21.20;1.00;;;;;;5058505;28;20260;-86
2022/07/21 05:14:09;;;;;;;17.80;13.00;;;21.30;1.00;;;;;;5058589;28;20631;-85
2022/07/21 05:16:34;;;;;;;20.33;13.70;;;21.40;1.00;;;;;;5069213;22;20186;-84
2022/07/21 05:19:00;;;;;;;14.97;13.43;;;21.50;1.00;;;;;;5013421;28;20249;-83
2022/07/21 05:21:26;;;;;;;15.27;13.73;;;21.70;99.90;;;;;;5011450;28;20699;-84
2022/07/21 05:23:51;;;;;;;15.00;13.43;;;21.90;52.60;;;;;;5030469;28;20189;-83
2022/07/21 05:26:17;;;;;;;14.80;12.33;;;22.10;1.00;;;;;;5008176;28;20228;-84
2022/07/21 05:28:43;;;;;;;15.10;13.57;;;22.30;1.00;;;;;;5015572;28;20196;-84
2022/07/21 05:31:08;;;;;;;15.53;12.50;;;22.40;99.90;;;;;;5007739;28;20646;-83
2022/07/21 05:33:35;;;;;;;15.20;12.07;;;22.60;99.90;;;;;;4992780;28;20429;-85
2022/07/21 05:36:00;;;;;;;16.73;13.03;;;22.70;1.00;;;;;;4995697;28;20190;-86
2022/07/21 05:38:26;;;;;;;15.07;11.77;;;23.00;99.90;;;;;;4993660;28;20448;-84
2022/07/21 05:40:51;;;;;;;13.37;12.00;;;23.20;1.00;;;;;;5011876;28;20266;-84
2022/07/21 05:43:17;;;;;;;12.93;11.73;;;23.50;99.90;;;;;;4994928;28;20192;-84
2022/07/21 05:45:42;;;;;;;14.77;13.17;;;23.60;1.00;;;;;;5007955;28;20426;-82
2022/07/21 05:48:08;;;;;;;14.80;13.43;;;23.60;99.90;;;;;;5010929;28;20815;-83
2022/07/21 05:50:34;;;;;;;18.43;12.10;;;23.60;99.90;;;;;;5009295;28;20207;-83
2022/07/21 05:52:59;;;;;;;12.53;11.30;;;23.70;99.90;;;;;;4996649;28;20204;-83
2022/07/21 05:55:25;;;;;;;14.03;11.27;;;23.80;15.80;;;;;;5011510;28;20184;-85
2022/07/21 05:57:50;;;;;;;12.80;11.37;;;24.00;1.00;;;;;;5008791;28;20217;-81
2022/07/21 06:00:17;;;;;;;12.00;10.80;;;24.20;1.00;;;;;;4995152;28;20557;-84
2022/07/21 06:02:46;;;;;;;11.63;10.43;;;24.40;99.90;;;;;;5009840;28;20218;-83
2022/07/21 06:05:11;;;;;;;15.90;10.93;;;24.90;99.90;;;;;;4995743;28;20498;-85
2022/07/21 06:07:38;;;;;;;10.87;9.80;;;26.20;34.10;;;;;;4994052;28;20481;-83
2022/07/21 06:10:06;;;;;;;10.60;8.87;;;29.50;1.00;;;;;;4992913;28;20180;-84
2022/07/21 06:12:31;;;;;;;15.67;10.60;;;31.00;99.90;;;;;;4991549;28;20438;-83
2022/07/21 06:14:57;;;;;;;10.13;9.23;;;30.20;99.90;;;;;;4994011;28;20430;-82
2022/07/21 06:17:23;;;;;;;10.10;8.97;;;30.50;99.90;;;;;;4992481;28;20233;-84
2022/07/21 06:19:49;;;;;;;10.17;8.20;;;31.70;99.90;;;;;;5013213;28;20556;-82
2022/07/21 06:22:14;;;;;;;8.60;7.90;;;33.80;99.90;;;;;;4999440;28;20210;-82
2022/07/21 06:24:40;;;;;;;9.40;8.40;;;35.40;99.90;;;;;;4995098;28;20712;-83
2022/07/21 06:27:05;;;;;;;8.50;7.73;;;33.90;99.90;;;;;;5010617;28;20214;-82
2022/07/21 06:29:31;;;;;;;8.43;7.50;;;32.40;99.90;;;;;;4992682;28;20187;-81
2022/07/21 06:31:57;;;;;;;10.23;8.57;;;31.20;99.90;;;;;;5011646;28;20187;-80
2022/07/21 06:34:22;;;;;;;9.40;8.50;;;30.40;99.90;;;;;;4992694;28;20183;-80
2022/07/21 06:36:48;;;;;;;8.07;7.27;;;30.40;99.90;;;;;;5009744;28;20208;-82
2022/07/21 06:39:13;;;;;;;9.20;7.33;;;31.60;99.90;;;;;;4994413;28;20724;-82
2022/07/21 06:41:40;;;;;;;9.40;6.90;;;33.80;99.90;;;;;;4999675;28;20187;-82
2022/07/21 06:44:05;;;;;;;7.80;7.20;;;33.90;99.90;;;;;;5010087;28;20285;-82
2022/07/21 06:46:34;;;;;;;8.03;6.93;;;33.10;99.90;;;;;;4990115;28;20594;-83
2022/07/21 06:49:00;;;;;;;8.53;7.73;;;33.60;99.90;;;;;;4992493;28;20201;-82
2022/07/21 06:51:26;;;;;;;9.77;8.93;;;32.10;99.90;;;;;;5007822;28;20541;-81
2022/07/21 06:53:52;;;;;;;9.70;7.43;;;30.80;99.90;;;;;;5009404;28;21001;-81
2022/07/21 06:56:18;;;;;;;9.47;7.60;;;29.60;99.90;;;;;;4988967;28;20446;-83
2022/07/21 06:58:44;;;;;;;9.63;7.53;;;28.60;99.90;;;;;;5013675;28;20214;-81
2022/07/21 07:01:10;;;;;;;10.07;6.80;;;28.30;99.90;;;;;;4994698;28;20942;-81
2022/07/21 07:03:37;;;;;;;10.30;7.63;;;28.10;99.90;;;;;;5009366;28;20425;-82
2022/07/21 07:06:03;;;;;;;10.67;7.13;;;27.50;99.90;;;;;;4992268;28;20218;-82
2022/07/21 07:08:28;;;;;;;8.50;7.30;;;27.20;99.90;;;;;;5011249;28;20514;-82
2022/07/21 07:10:54;;;;;;;8.87;7.37;;;27.10;99.90;;;;;;4996422;28;20576;-82
2022/07/21 07:13:19;;;;;;;9.60;6.40;;;32.10;99.90;;;;;;5011779;28;20183;-83
2022/07/21 07:15:45;;;;;;;8.80;6.10;;;38.50;99.90;;;;;;5009670;28;20187;-82
2022/07/21 07:18:11;;;;;;;8.53;5.93;;;38.80;99.90;;;;;;4987167;28;20222;-83
2022/07/21 07:20:37;;;;;;;6.73;6.20;;;36.40;99.90;;;;;;4989572;28;20287;-82
2022/07/21 07:23:03;;;;;;;7.70;6.63;;;34.40;99.90;;;;;;5009955;28;20191;-82
2022/07/21 07:25:29;;;;;;;8.00;7.20;;;32.70;99.90;;;;;;5003294;28;20425;-81
2022/07/21 07:27:56;;;;;;;13.00;7.50;;;31.00;99.80;;;;;;4997799;28;20480;-82
2022/07/21 07:30:22;;;;;;;8.53;7.63;;;29.80;99.00;;;;;;4994868;28;20210;-83
2022/07/21 07:32:48;;;;;;;8.73;7.80;;;28.60;99.20;;;;;;5007415;28;20489;-84
2022/07/21 07:35:14;;;;;;;11.53;9.03;;;27.90;99.90;;;;;;5007554;28;20192;-81
2022/07/21 07:37:42;;;;;;;10.37;8.80;;;27.30;99.90;;;;;;4989428;28;20257;-83
2022/07/21 07:40:13;;;;;;;10.47;9.07;;;27.10;99.90;;;;;;5000851;28;20426;-82
2022/07/21 07:42:39;;;;;;;10.07;9.07;;;27.20;99.90;;;;;;5009216;28;20457;-82
2022/07/21 07:45:07;;;;;;;8.80;7.90;;;27.50;99.90;;;;;;5008438;28;20444;-83
2022/07/21 07:47:33;;;;;;;11.97;8.27;;;30.50;99.90;;;;;;4996085;28;20246;-83
2022/07/21 07:49:59;;;;;;;7.80;7.13;;;33.20;99.90;;;;;;4995210;28;20457;-83
2022/07/21 07:52:24;;;;;;;8.60;7.80;;;35.50;99.90;;;;;;5009133;28;20433;-83
2022/07/21 07:54:50;;;;;;;8.83;7.93;;;34.10;99.90;;;;;;5001067;28;20436;-82
2022/07/21 07:57:16;;;;;;;8.90;8.10;;;32.90;99.90;;;;;;5016527;28;20473;-83
2022/07/21 07:59:41;;;;;;;9.20;7.37;;;33.00;99.90;;;;;;5001686;28;20199;-82
2022/07/21 08:02:07;;;;;;;12.63;8.40;;;32.00;99.90;;;;;;5013656;28;20533;-83
2022/07/21 08:04:32;;;;;;;9.77;8.87;;;31.30;99.90;;;;;;5000863;28;20654;-83
2022/07/21 08:06:58;;;;;;;10.10;9.00;;;30.60;99.20;;;;;;5014601;28;20258;-84
2022/07/21 08:09:23;;;;;;;8.77;7.73;;;33.70;99.90;;;;;;5014274;28;20190;-82
2022/07/21 08:11:50;;;;;;;9.23;7.50;;;34.40;99.90;;;;;;5008895;28;20643;-83
2022/07/21 08:14:16;;;;;;;8.03;7.33;;;34.50;99.90;;;;;;5001054;28;20191;-83
2022/07/21 08:16:42;;;;;;;8.20;7.40;;;33.80;97.10;;;;;;5001447;28;20474;-82
2022/07/21 08:19:08;;;;;;;11.33;7.33;;;34.20;96.60;;;;;;4997203;28;20191;-83
2022/07/21 08:21:34;;;;;;;9.70;6.10;;;35.20;95.90;;;;;;5017758;28;20504;-83
2022/07/21 08:24:01;;;;;;;7.90;7.10;;;35.10;93.60;;;;;;5002720;28;20191;-86
2022/07/21 08:26:27;;;;;;;7.70;7.03;;;35.70;92.50;;;;;;4999341;28;20218;-82
2022/07/21 08:28:53;;;;;;;8.10;7.30;;;35.70;91.00;;;;;;5010912;28;21037;-81
2022/07/21 08:31:19;;;;;;;9.73;7.40;;;35.00;86.10;;;;;;5004348;28;20545;-83
2022/07/21 08:33:45;;;;;;;8.20;7.50;;;34.10;80.40;;;;;;4997158;28;20438;-82
2022/07/21 08:36:11;;;;;;;11.20;7.37;;;33.60;78.30;;;;;;5002525;28;20810;-82
2022/07/21 08:38:36;;;;;;;7.90;7.20;;;33.30;78.80;;;;;;5016423;28;20220;-84
2022/07/21 08:41:02;;;;;;;10.03;8.77;;;32.50;75.10;;;;;;5006620;28;20199;-82
2022/07/21 08:43:29;;;;;;;9.53;8.73;;;32.10;76.80;;;;;;5018028;28;20191;-83
2022/07/21 08:45:55;;;;;;;8.70;6.80;;;31.90;74.60;;;;;;5017301;28;20187;-84
2022/07/21 08:48:24;;;;;;;9.43;6.50;;;31.50;73.20;;;;;;5024843;28;20457;-83
2022/07/21 08:50:50;;;;;;;8.33;7.63;;;30.80;73.20;;;;;;5008715;28;20194;-84
2022/07/21 08:53:16;;;;;;;8.10;7.30;;;30.10;71.80;;;;;;5002060;28;20445;-83
2022/07/21 08:55:41;;;;;;;8.03;7.17;;;29.50;72.70;;;;;;5003385;28;20430;-83
2022/07/21 08:58:09;;;;;;;9.93;6.87;;;29.00;73.80;;;;;;4994354;28;20219;-83
2022/07/21 09:00:36;;;;;;;8.03;6.67;;;28.50;74.80;;;;;;5010825;28;20254;-83
2022/07/21 09:03:11;;;;;;;7.97;7.20;;;28.60;76.50;;;;;;5005647;28;20465;-83
2022/07/21 09:05:37;;;;;;;6.90;6.20;;;28.90;79.40;;;;;;5015093;28;20425;-83
2022/07/21 09:08:03;;;;;;;9.17;7.23;;;29.10;81.40;;;;;;4998096;28;20496;-83
2022/07/21 09:10:30;;;;;;;9.10;7.00;;;29.50;84.80;;;;;;5012086;28;20191;-84
2022/07/21 09:12:59;;;;;;;6.40;5.80;;;29.90;86.20;;;;;;5013544;28;20557;-84
2022/07/21 09:15:27;;;;;;;10.27;6.70;;;30.10;88.30;;;;;;4991787;28;20451;-85
2022/07/21 09:18:15;;;;;;;7.60;6.33;;;29.80;86.40;;;;;;4995024;28;20509;-83
2022/07/21 09:20:52;;;;;;;7.27;6.57;;;29.00;84.70;;;;;;4997860;28;20450;-83
2022/07/21 09:23:20;;;;;;;9.03;7.50;;;28.30;82.60;;;;;;4997634;28;20425;-84
2022/07/21 09:25:48;;;;;;;7.90;6.73;;;27.60;84.50;;;;;;5012570;28;20521;-84
2022/07/21 09:28:21;;;;;;;9.77;8.50;;;27.10;86.00;;;;;;5016063;28;20457;-85
2022/07/21 09:31:11;;;;;;;20.90;8.33;;;26.50;89.80;;;;;;5013639;28;20523;-82
2022/07/21 09:33:39;;;;;;;12.37;8.60;;;26.00;92.50;;;;;;4998151;28;20439;-83
2022/07/21 09:36:16;;;;;;;10.10;8.27;;;25.70;99.90;;;;;;5005578;28;20425;-83
2022/07/21 09:38:49;;;;;;;9.73;8.13;;;25.40;99.90;;;;;;5006312;28;21036;-82
2022/07/21 09:41:17;;;;;;;9.83;8.90;;;25.20;99.90;;;;;;5013374;28;20904;-83
2022/07/21 09:43:45;;;;;;;13.80;9.30;;;25.00;99.90;;;;;;5000406;28;20437;-84
2022/07/21 09:46:22;;;;;;;10.20;8.53;;;24.70;99.90;;;;;;5014492;28;20475;-87
2022/07/21 09:48:50;;;;;;;11.10;9.27;;;24.60;99.90;;;;;;5001429;28;20475;-83
2022/07/21 09:51:25;;;;;;;13.90;10.40;;;24.50;99.90;;;;;;4996129;28;20443;-83
2022/07/21 09:54:00;;;;;;;11.07;9.77;;;24.50;99.90;;;;;;4999440;28;20482;-82
2022/07/21 09:56:28;;;;;;;10.67;9.00;;;24.50;99.90;;;;;;4996957;28;20444;-84
2022/07/21 09:58:56;;;;;;;11.80;9.53;;;24.50;99.90;;;;;;5002132;28;20475;-83
2022/07/21 10:01:23;;;;;;;13.70;10.97;;;24.50;99.90;;;;;;5006782;28;20429;-81
2022/07/21 10:03:50;;;;;;;11.63;10.43;;;24.70;99.90;;;;;;4994227;28;21147;-84
2022/07/21 10:06:19;;;;;;;12.53;9.40;;;24.90;99.90;;;;;;4998393;28;20472;-82
2022/07/21 10:08:45;;;;;;;11.47;10.37;;;25.10;99.90;;;;;;4989706;28;20473;-84
2022/07/21 10:11:11;;;;;;;11.43;10.23;;;25.30;99.90;;;;;;5002374;28;20449;-84
2022/07/21 10:13:39;;;;;;;11.23;10.03;;;25.30;99.90;;;;;;5012801;28;20968;-84
2022/07/21 10:16:04;;;;;;;13.00;11.70;;;25.30;99.90;;;;;;5004520;28;20827;-83
2022/07/21 10:19:11;;;;;;;11.27;10.10;;;25.20;99.90;;;;;;4993930;28;20510;-83
2022/07/21 10:21:53;;;;;;;11.87;10.57;;;25.10;1.00;;;;;;5011560;28;20208;-83
2022/07/21 10:24:19;;;;;;;12.30;11.00;;;24.90;1.00;;;;;;5000039;28;20824;-84
2022/07/21 10:27:07;;;;;;;15.17;11.40;;;24.50;1.00;;;;;;4999627;28;20857;-83
2022/07/21 10:29:52;;;;;;;12.03;10.40;;;24.30;1.00;;;;;;5015111;28;20481;-84
2022/07/21 10:32:21;;;;;;;12.50;11.20;;;24.00;44.60;;;;;;5012055;28;20479;-84
2022/07/21 10:34:50;;;;;;;17.00;12.50;;;23.90;99.90;;;;;;4992224;28;20584;-84
2022/07/21 10:37:41;;;;;;;18.33;12.30;;;23.60;4.10;;;;;;5014565;28;20448;-85
2022/07/21 10:40:18;;;;;;;16.77;13.20;;;23.40;99.90;;;;;;5013792;28;20429;-84
2022/07/21 10:42:44;;;;;;;12.90;11.70;;;23.30;1.00;;;;;;5013937;28;20461;-84
2022/07/21 10:45:31;;;;;;;13.20;11.90;;;23.30;1.00;;;;;;4997746;28;20445;-83
2022/07/21 10:47:58;;;;;;;14.10;10.87;;;23.20;1.00;;;;;;5014334;28;20755;-86
2022/07/21 10:50:41;;;;;;;17.77;11.27;;;23.30;1.00;;;;;;4999592;28;20421;-84
2022/07/21 10:53:16;;;;;;;12.93;11.53;;;23.10;99.90;;;;;;5002754;28;20774;-84
2022/07/21 10:55:50;;;;;;;13.20;11.20;;;23.00;99.90;;;;;;5012341;28;20424;-82
2022/07/21 10:58:17;;;;;;;12.70;10.97;;;23.00;1.00;;;;;;5009356;28;20463;-85
2022/07/21 11:01:05;;;;;;;14.43;10.20;;;22.90;1.00;;;;;;5002178;28;20516;-84
2022/07/21 11:03:38;;;;;;;14.70;11.00;;;22.90;99.90;;;;;;4994886;28;20443;-83
2022/07/21 11:06:09;;;;;;;12.00;10.33;;;22.70;1.00;;;;;;5000840;28;20499;-85
2022/07/21 11:08:40;;;;;;;13.97;11.63;;;22.60;1.00;;;;;;5001722;28;20805;-83
2022/07/21 11:11:25;;;;;;;13.67;9.97;;;22.40;99.90;;;;;;4996051;28;20821;-85
2022/07/21 11:14:10;;;;;;;10.77;9.67;;;22.30;1.00;;;;;;4997029;28;20448;-85
2022/07/21 11:16:41;;;;;;;11.23;10.13;;;22.30;1.00;;;;;;5011911;28;20456;-84
2022/07/21 11:19:38;;;;;;;9.73;8.80;;;22.20;1.00;;;;;;5014186;28;20499;-86
2022/07/21 11:22:10;;;;;;;11.23;9.30;;;22.00;1.00;;;;;;5003982;28;20463;-84
2022/07/21 11:24:36;;;;;;;11.07;9.93;;;22.00;96.10;;;;;;5012585;28;20416;-86
2022/07/21 11:27:10;;;;;;;10.20;9.20;;;22.00;99.90;;;;;;5015134;28;20496;-86
2022/07/21 11:29:37;;;;;;;11.80;10.60;;;21.90;99.90;;;;;;4998924;28;20456;-84
2022/07/21 11:32:04;;;;;;;12.10;11.00;;;21.90;99.90;;;;;;5013155;28;20443;-84
2022/07/21 11:34:49;;;;;;;11.87;10.67;;;21.80;99.90;;;;;;5010390;28;20423;-83
2022/07/21 11:37:30;;;;;;;11.50;10.40;;;21.70;99.90;;;;;;4994246;28;20443;-86
2022/07/21 11:39:56;;;;;;;12.03;10.83;;;21.70;99.90;;;;;;4997851;28;20443;-85
2022/07/21 11:42:22;;;;;;;13.07;11.70;;;21.60;99.90;;;;;;5015317;28;20434;-84
2022/07/21 11:44:49;;;;;;;14.77;11.63;;;21.50;99.90;;;;;;4999366;28;20199;-84
2022/07/21 11:47:15;;;;;;;17.10;12.27;;;21.40;99.90;;;;;;4995014;28;20474;-85
2022/07/21 11:49:43;;;;;;;16.00;13.27;;;21.40;99.90;;;;;;5016628;28;20433;-85
2022/07/21 11:52:20;;;;;;;17.97;13.63;;;21.30;1.00;;;;;;4998784;28;20433;-85
2022/07/21 11:54:51;;;;;;;16.20;13.97;;;21.30;1.00;;;;;;4999072;28;20496;-84
2022/07/21 11:57:19;;;;;;;14.77;13.17;;;21.30;1.00;;;;;;5002254;28;20478;-84
2022/07/21 11:59:46;;;;;;;16.43;13.33;;;21.40;1.00;;;;;;5018262;28;20445;-83
2022/07/21 12:02:17;;;;;;;27.00;13.77;;;21.40;1.00;;;;;;5004363;28;20484;-86
2022/07/21 12:04:58;;;;;;;16.03;13.80;;;21.30;1.00;;;;;;5001271;28;20455;-84
2022/07/21 12:07:33;;;;;;;17.00;14.40;;;21.20;1.00;;;;;;5042540;22;20498;-85
2022/07/21 12:10:02;;;;;;;17.40;14.87;;;21.10;1.00;;;;;;5006880;28;20435;-84
2022/07/21 12:12:29;;;;;;;16.17;13.90;;;21.10;1.00;;;;;;5021462;28;20445;-84
2022/07/21 12:14:55;;;;;;;15.47;13.87;;;21.00;1.00;;;;;;5023010;28;20455;-85
2022/07/21 12:17:39;;;;;;;14.03;12.57;;;21.00;1.00;;;;;;5015514;28;21028;-82
2022/07/21 12:20:06;;;;;;;13.60;11.10;;;21.00;1.00;;;;;;5025108;28;20194;-82
2022/07/21 12:22:44;;;;;;;9.00;8.10;;;21.00;1.00;;;;;;5005869;28;20450;-81
2022/07/21 12:25:11;;;;;;;6.20;5.60;;;20.90;1.00;;;;;;5021521;28;20466;-82
2022/07/21 12:27:39;;;;;;;5.10;4.60;;;20.80;1.00;;;;;;5009389;28;20470;-85
2022/07/21 12:30:06;;;;;;;6.40;5.80;;;20.70;1.00;;;;;;5022822;28;20446;-85
2022/07/21 12:32:49;;;;;;;6.47;4.97;;;20.60;1.00;;;;;;5015652;28;20548;-86
2022/07/21 12:35:23;;;;;;;5.73;5.23;;;20.50;1.00;;;;;;5011088;28;20437;-86
2022/07/21 12:38:12;;;;;;;6.07;5.53;;;20.50;1.00;;;;;;5005160;28;20437;-85
2022/07/21 12:40:42;;;;;;;6.37;5.77;;;20.60;1.00;;;;;;5001283;28;20439;-82
2022/07/21 12:43:14;;;;;;;7.07;6.37;;;20.70;1.00;;;;;;5001987;28;20432;-86
2022/07/21 12:45:54;;;;;;;12.70;6.97;;;20.80;1.00;;;;;;4997819;28;20528;-81
2022/07/21 12:48:31;;;;;;;7.07;6.47;;;21.00;1.00;;;;;;5006042;28;20432;-85